Sanders, Idaho
Current Conditions -  °F | °C
As of 8:53 PM on Sunday 21 Dec 2014 (Local Time) from KPUW Reporting Station
Few Clouds Few Clouds  
Wind Chill: 34°   Ceiling: Unl
Heat Index: 43°   Visibility: 10mi
Dew Point: 38°   Wind: 22mph
Humidity: 82%   Direction: 240°WSW
Pressure: 29.98"   Gusts: 31mph
Location:  47.1849°N, 116.871°W
Report Text: KPUW 220453Z AUTO 24019G27KT 10SM FEW020 FEW110 06/03 A2998 RMK AO2 PK WND 25027/0421 SLP160 T00610033
Loading
Personal Weather Stations






























Interactive Weather Map New forecast layout! Learn more

10-Day Weather Forecast

Advertisements
Track Severe Weather on mobile